sensor_id;sensor_type;location;lat;lon;timestamp;temperature;humidity
11229;DHT22;5671;47.936;8.716;2022-10-19T00:00:33;9.60;83.10
11229;DHT22;5671;47.936;8.716;2022-10-19T00:03:01;9.70;83.60
11229;DHT22;5671;47.936;8.716;2022-10-19T00:05:28;9.70;83.00
11229;DHT22;5671;47.936;8.716;2022-10-19T00:07:55;9.70;82.40
11229;DHT22;5671;47.936;8.716;2022-10-19T00:10:34;9.70;82.20
11229;DHT22;5671;47.936;8.716;2022-10-19T00:13:05;9.70;82.40
11229;DHT22;5671;47.936;8.716;2022-10-19T00:15:31;9.70;82.30
11229;DHT22;5671;47.936;8.716;2022-10-19T00:17:58;9.70;82.90
11229;DHT22;5671;47.936;8.716;2022-10-19T00:20:27;9.70;83.10
11229;DHT22;5671;47.936;8.716;2022-10-19T00:22:54;9.70;83.30
11229;DHT22;5671;47.936;8.716;2022-10-19T00:25:22;9.70;83.80
11229;DHT22;5671;47.936;8.716;2022-10-19T00:27:49;9.70;83.70
11229;DHT22;5671;47.936;8.716;2022-10-19T00:30:16;9.70;84.50
11229;DHT22;5671;47.936;8.716;2022-10-19T00:32:43;9.70;84.20
11229;DHT22;5671;47.936;8.716;2022-10-19T00:37:53;9.80;85.40
11229;DHT22;5671;47.936;8.716;2022-10-19T00:40:20;9.70;85.30
11229;DHT22;5671;47.936;8.716;2022-10-19T00:42:53;9.70;85.00
11229;DHT22;5671;47.936;8.716;2022-10-19T00:45:20;9.70;84.70
11229;DHT22;5671;47.936;8.716;2022-10-19T00:47:47;9.80;85.00
11229;DHT22;5671;47.936;8.716;2022-10-19T00:50:14;9.80;85.30
11229;DHT22;5671;47.936;8.716;2022-10-19T00:52:42;9.80;85.10
11229;DHT22;5671;47.936;8.716;2022-10-19T00:55:10;9.80;84.80
11229;DHT22;5671;47.936;8.716;2022-10-19T00:57:38;9.80;85.90
11229;DHT22;5671;47.936;8.716;2022-10-19T01:00:07;9.70;86.60
11229;DHT22;5671;47.936;8.716;2022-10-19T01:02:35;9.70;86.60
11229;DHT22;5671;47.936;8.716;2022-10-19T01:05:02;9.70;86.70
11229;DHT22;5671;47.936;8.716;2022-10-19T01:07:29;9.70;86.70
11229;DHT22;5671;47.936;8.716;2022-10-19T01:09:57;9.70;86.30
11229;DHT22;5671;47.936;8.716;2022-10-19T01:12:46;9.70;86.10
11229;DHT22;5671;47.936;8.716;2022-10-19T01:15:25;9.70;85.70
11229;DHT22;5671;47.936;8.716;2022-10-19T01:17:57;9.70;85.60
11229;DHT22;5671;47.936;8.716;2022-10-19T01:20:40;9.70;85.60
11229;DHT22;5671;47.936;8.716;2022-10-19T01:23:29;9.70;85.30
11229;DHT22;5671;47.936;8.716;2022-10-19T01:26:13;9.70;85.60
11229;DHT22;5671;47.936;8.716;2022-10-19T01:28:55;9.70;85.80
11229;DHT22;5671;47.936;8.716;2022-10-19T01:31:34;9.70;85.60
11229;DHT22;5671;47.936;8.716;2022-10-19T01:34:07;9.70;86.00
11229;DHT22;5671;47.936;8.716;2022-10-19T01:36:40;9.70;86.60
11229;DHT22;5671;47.936;8.716;2022-10-19T01:39:11;9.70;86.70
11229;DHT22;5671;47.936;8.716;2022-10-19T01:41:43;9.80;86.70
11229;DHT22;5671;47.936;8.716;2022-10-19T01:44:15;9.70;87.20
11229;DHT22;5671;47.936;8.716;2022-10-19T01:46:49;9.70;86.70
11229;DHT22;5671;47.936;8.716;2022-10-19T01:49:22;9.80;85.70
11229;DHT22;5671;47.936;8.716;2022-10-19T01:51:54;9.80;86.10
11229;DHT22;5671;47.936;8.716;2022-10-19T01:54:23;9.80;85.70
11229;DHT22;5671;47.936;8.716;2022-10-19T01:56:53;9.80;85.70
11229;DHT22;5671;47.936;8.716;2022-10-19T01:59:22;9.80;85.90
11229;DHT22;5671;47.936;8.716;2022-10-19T02:01:52;9.80;86.30
11229;DHT22;5671;47.936;8.716;2022-10-19T02:04:22;9.80;86.30
11229;DHT22;5671;47.936;8.716;2022-10-19T02:06:50;9.90;86.60
11229;DHT22;5671;47.936;8.716;2022-10-19T02:09:17;9.90;86.50
11229;DHT22;5671;47.936;8.716;2022-10-19T02:11:46;9.90;86.80
11229;DHT22;5671;47.936;8.716;2022-10-19T02:14:16;9.90;86.60
11229;DHT22;5671;47.936;8.716;2022-10-19T02:16:47;9.90;86.40
11229;DHT22;5671;47.936;8.716;2022-10-19T02:19:17;9.90;86.00
11229;DHT22;5671;47.936;8.716;2022-10-19T02:21:46;9.90;86.00
11229;DHT22;5671;47.936;8.716;2022-10-19T02:24:13;10.00;85.50
11229;DHT22;5671;47.936;8.716;2022-10-19T02:26:40;10.00;85.90
11229;DHT22;5671;47.936;8.716;2022-10-19T02:29:17;10.00;85.90
11229;DHT22;5671;47.936;8.716;2022-10-19T02:31:44;10.00;85.90
11229;DHT22;5671;47.936;8.716;2022-10-19T02:34:11;10.00;86.10
11229;DHT22;5671;47.936;8.716;2022-10-19T02:36:40;10.00;85.70
11229;DHT22;5671;47.936;8.716;2022-10-19T02:39:07;10.00;85.30
11229;DHT22;5671;47.936;8.716;2022-10-19T02:41:38;10.00;85.10
11229;DHT22;5671;47.936;8.716;2022-10-19T02:44:11;10.00;85.10
11229;DHT22;5671;47.936;8.716;2022-10-19T02:46:43;10.10;85.50
11229;DHT22;5671;47.936;8.716;2022-10-19T02:49:11;10.10;85.50
11229;DHT22;5671;47.936;8.716;2022-10-19T02:51:56;10.10;84.90
11229;DHT22;5671;47.936;8.716;2022-10-19T02:54:23;10.10;85.90
11229;DHT22;5671;47.936;8.716;2022-10-19T02:56:50;10.10;85.80
11229;DHT22;5671;47.936;8.716;2022-10-19T02:59:17;10.10;85.40
11229;DHT22;5671;47.936;8.716;2022-10-19T03:01:44;10.10;85.40
11229;DHT22;5671;47.936;8.716;2022-10-19T03:04:11;10.10;85.80
11229;DHT22;5671;47.936;8.716;2022-10-19T03:06:38;10.10;85.50
11229;DHT22;5671;47.936;8.716;2022-10-19T03:09:06;10.20;85.60
11229;DHT22;5671;47.936;8.716;2022-10-19T03:11:33;10.10;86.30
11229;DHT22;5671;47.936;8.716;2022-10-19T03:14:00;10.10;85.90
11229;DHT22;5671;47.936;8.716;2022-10-19T03:16:27;10.20;86.10
11229;DHT22;5671;47.936;8.716;2022-10-19T03:18:54;10.20;86.00
11229;DHT22;5671;47.936;8.716;2022-10-19T03:21:21;10.20;86.40
11229;DHT22;5671;47.936;8.716;2022-10-19T03:23:48;10.20;86.40
11229;DHT22;5671;47.936;8.716;2022-10-19T03:26:16;10.20;86.00
11229;DHT22;5671;47.936;8.716;2022-10-19T03:28:43;10.20;86.60
11229;DHT22;5671;47.936;8.716;2022-10-19T03:31:10;10.20;86.40
11229;DHT22;5671;47.936;8.716;2022-10-19T03:33:37;10.30;86.30
11229;DHT22;5671;47.936;8.716;2022-10-19T03:36:15;10.30;86.00
11229;DHT22;5671;47.936;8.716;2022-10-19T03:38:42;10.30;86.20
11229;DHT22;5671;47.936;8.716;2022-10-19T03:41:09;10.30;86.50
11229;DHT22;5671;47.936;8.716;2022-10-19T03:43:37;10.30;86.10
11229;DHT22;5671;47.936;8.716;2022-10-19T03:46:05;10.30;85.90
11229;DHT22;5671;47.936;8.716;2022-10-19T03:48:33;10.40;85.40
11229;DHT22;5671;47.936;8.716;2022-10-19T03:51:01;10.40;85.10
11229;DHT22;5671;47.936;8.716;2022-10-19T03:53:40;10.40;85.40
11229;DHT22;5671;47.936;8.716;2022-10-19T03:56:13;10.40;85.90
11229;DHT22;5671;47.936;8.716;2022-10-19T03:58:44;10.40;86.50
11229;DHT22;5671;47.936;8.716;2022-10-19T04:01:14;10.40;86.20
11229;DHT22;5671;47.936;8.716;2022-10-19T04:03:41;10.40;87.00
11229;DHT22;5671;47.936;8.716;2022-10-19T04:06:11;10.50;86.80
11229;DHT22;5671;47.936;8.716;2022-10-19T04:08:42;10.50;86.60
11229;DHT22;5671;47.936;8.716;2022-10-19T04:11:13;10.50;87.10
11229;DHT22;5671;47.936;8.716;2022-10-19T04:13:41;10.50;86.90
11229;DHT22;5671;47.936;8.716;2022-10-19T04:16:09;10.50;86.90
11229;DHT22;5671;47.936;8.716;2022-10-19T04:18:39;10.60;87.10
11229;DHT22;5671;47.936;8.716;2022-10-19T04:21:06;10.60;86.80
11229;DHT22;5671;47.936;8.716;2022-10-19T04:23:34;10.60;86.40
11229;DHT22;5671;47.936;8.716;2022-10-19T04:26:05;10.60;86.90
11229;DHT22;5671;47.936;8.716;2022-10-19T04:28:33;10.60;87.00
11229;DHT22;5671;47.936;8.716;2022-10-19T04:31:02;10.60;86.90
11229;DHT22;5671;47.936;8.716;2022-10-19T04:33:30;10.70;86.50
11229;DHT22;5671;47.936;8.716;2022-10-19T04:35:57;10.70;86.60
11229;DHT22;5671;47.936;8.716;2022-10-19T04:38:28;10.70;86.70
11229;DHT22;5671;47.936;8.716;2022-10-19T04:40:59;10.70;87.30
11229;DHT22;5671;47.936;8.716;2022-10-19T04:43:26;10.80;87.80
11229;DHT22;5671;47.936;8.716;2022-10-19T04:45:53;10.80;87.90
11229;DHT22;5671;47.936;8.716;2022-10-19T04:48:21;10.80;87.80
11229;DHT22;5671;47.936;8.716;2022-10-19T04:50:48;10.80;87.90
11229;DHT22;5671;47.936;8.716;2022-10-19T04:53:15;10.90;87.20
11229;DHT22;5671;47.936;8.716;2022-10-19T04:55:44;10.90;87.20
11229;DHT22;5671;47.936;8.716;2022-10-19T04:58:11;10.90;87.30
11229;DHT22;5671;47.936;8.716;2022-10-19T05:00:38;10.90;87.60
11229;DHT22;5671;47.936;8.716;2022-10-19T05:03:05;10.90;87.50
11229;DHT22;5671;47.936;8.716;2022-10-19T05:05:34;10.90;87.60
11229;DHT22;5671;47.936;8.716;2022-10-19T05:08:01;10.90;87.50
11229;DHT22;5671;47.936;8.716;2022-10-19T05:10:28;10.90;86.40
11229;DHT22;5671;47.936;8.716;2022-10-19T05:12:55;11.00;87.20
11229;DHT22;5671;47.936;8.716;2022-10-19T05:15:22;11.00;87.40
11229;DHT22;5671;47.936;8.716;2022-10-19T05:17:48;11.00;87.20
11229;DHT22;5671;47.936;8.716;2022-10-19T05:20:15;11.00;86.90
11229;DHT22;5671;47.936;8.716;2022-10-19T05:22:44;11.00;87.20
11229;DHT22;5671;47.936;8.716;2022-10-19T05:25:11;11.00;87.20
11229;DHT22;5671;47.936;8.716;2022-10-19T05:27:37;11.00;87.20
11229;DHT22;5671;47.936;8.716;2022-10-19T05:30:05;11.00;86.30
11229;DHT22;5671;47.936;8.716;2022-10-19T05:32:33;11.00;87.00
11229;DHT22;5671;47.936;8.716;2022-10-19T05:35:00;11.00;87.00
11229;DHT22;5671;47.936;8.716;2022-10-19T05:37:27;11.00;87.40
11229;DHT22;5671;47.936;8.716;2022-10-19T05:39:55;11.00;87.50
11229;DHT22;5671;47.936;8.716;2022-10-19T05:42:22;11.10;87.30
11229;DHT22;5671;47.936;8.716;2022-10-19T05:44:49;11.10;87.30
11229;DHT22;5671;47.936;8.716;2022-10-19T05:47:16;11.10;87.30
11229;DHT22;5671;47.936;8.716;2022-10-19T05:49:43;11.10;87.40
11229;DHT22;5671;47.936;8.716;2022-10-19T05:52:10;11.10;87.40
11229;DHT22;5671;47.936;8.716;2022-10-19T05:54:37;11.10;87.50
11229;DHT22;5671;47.936;8.716;2022-10-19T05:57:06;11.10;86.80
11229;DHT22;5671;47.936;8.716;2022-10-19T05:59:33;11.10;86.70
11229;DHT22;5671;47.936;8.716;2022-10-19T06:01:59;11.10;87.30
11229;DHT22;5671;47.936;8.716;2022-10-19T06:04:26;11.10;87.50
11229;DHT22;5671;47.936;8.716;2022-10-19T06:06:53;11.10;87.00
11229;DHT22;5671;47.936;8.716;2022-10-19T06:09:20;11.20;87.40
11229;DHT22;5671;47.936;8.716;2022-10-19T06:11:47;11.20;87.20
11229;DHT22;5671;47.936;8.716;2022-10-19T06:14:15;11.20;86.90
11229;DHT22;5671;47.936;8.716;2022-10-19T06:16:42;11.20;86.80
11229;DHT22;5671;47.936;8.716;2022-10-19T06:19:10;11.20;87.20
11229;DHT22;5671;47.936;8.716;2022-10-19T06:21:37;11.20;87.30
11229;DHT22;5671;47.936;8.716;2022-10-19T06:24:04;11.20;87.20
11229;DHT22;5671;47.936;8.716;2022-10-19T06:26:33;11.20;87.00
11229;DHT22;5671;47.936;8.716;2022-10-19T06:29:01;11.20;87.10
11229;DHT22;5671;47.936;8.716;2022-10-19T06:31:30;11.30;87.30
11229;DHT22;5671;47.936;8.716;2022-10-19T06:33:58;11.30;87.40
11229;DHT22;5671;47.936;8.716;2022-10-19T06:36:27;11.30;87.80
11229;DHT22;5671;47.936;8.716;2022-10-19T06:38:54;11.30;87.60
11229;DHT22;5671;47.936;8.716;2022-10-19T06:41:24;11.40;88.60
11229;DHT22;5671;47.936;8.716;2022-10-19T06:43:51;11.40;88.60
11229;DHT22;5671;47.936;8.716;2022-10-19T06:46:20;11.40;88.70
11229;DHT22;5671;47.936;8.716;2022-10-19T06:48:53;11.50;88.20
11229;DHT22;5671;47.936;8.716;2022-10-19T06:51:21;11.60;89.20
11229;DHT22;5671;47.936;8.716;2022-10-19T06:53:49;11.60;89.70
11229;DHT22;5671;47.936;8.716;2022-10-19T06:56:15;11.70;90.00
11229;DHT22;5671;47.936;8.716;2022-10-19T06:58:43;11.80;90.70
11229;DHT22;5671;47.936;8.716;2022-10-19T07:01:10;11.80;90.60
11229;DHT22;5671;47.936;8.716;2022-10-19T07:03:39;11.90;91.10
11229;DHT22;5671;47.936;8.716;2022-10-19T07:06:11;12.00;91.00
11229;DHT22;5671;47.936;8.716;2022-10-19T07:08:39;12.10;91.00
11229;DHT22;5671;47.936;8.716;2022-10-19T07:11:08;12.10;91.00
11229;DHT22;5671;47.936;8.716;2022-10-19T07:13:35;12.20;90.60
11229;DHT22;5671;47.936;8.716;2022-10-19T07:16:04;12.20;90.50
11229;DHT22;5671;47.936;8.716;2022-10-19T07:18:33;12.30;90.00
11229;DHT22;5671;47.936;8.716;2022-10-19T07:21:01;12.40;90.00
11229;DHT22;5671;47.936;8.716;2022-10-19T07:23:32;12.40;90.00
11229;DHT22;5671;47.936;8.716;2022-10-19T07:26:03;12.50;89.70
11229;DHT22;5671;47.936;8.716;2022-10-19T07:28:31;12.50;89.60
11229;DHT22;5671;47.936;8.716;2022-10-19T07:30:58;12.60;89.40
11229;DHT22;5671;47.936;8.716;2022-10-19T07:33:24;12.60;89.00
11229;DHT22;5671;47.936;8.716;2022-10-19T07:35:58;12.70;88.90
11229;DHT22;5671;47.936;8.716;2022-10-19T07:38:25;12.70;88.80
11229;DHT22;5671;47.936;8.716;2022-10-19T07:40:59;12.80;88.70
11229;DHT22;5671;47.936;8.716;2022-10-19T07:43:26;12.80;88.40
11229;DHT22;5671;47.936;8.716;2022-10-19T07:45:57;12.80;88.20
11229;DHT22;5671;47.936;8.716;2022-10-19T07:48:24;12.80;88.00
11229;DHT22;5671;47.936;8.716;2022-10-19T07:50:51;12.90;87.70
11229;DHT22;5671;47.936;8.716;2022-10-19T07:53:18;12.90;87.70
11229;DHT22;5671;47.936;8.716;2022-10-19T07:55:45;12.90;87.20
11229;DHT22;5671;47.936;8.716;2022-10-19T07:58:13;13.00;87.50
11229;DHT22;5671;47.936;8.716;2022-10-19T08:00:40;13.00;87.60
11229;DHT22;5671;47.936;8.716;2022-10-19T08:03:07;13.00;87.10
11229;DHT22;5671;47.936;8.716;2022-10-19T08:05:34;13.00;87.00
11229;DHT22;5671;47.936;8.716;2022-10-19T08:08:01;13.10;86.90
11229;DHT22;5671;47.936;8.716;2022-10-19T08:10:28;13.10;86.80
11229;DHT22;5671;47.936;8.716;2022-10-19T08:12:55;13.10;87.00
11229;DHT22;5671;47.936;8.716;2022-10-19T08:15:23;13.10;86.80
11229;DHT22;5671;47.936;8.716;2022-10-19T08:17:51;13.10;86.60
11229;DHT22;5671;47.936;8.716;2022-10-19T08:20:18;13.20;86.60
11229;DHT22;5671;47.936;8.716;2022-10-19T08:22:45;13.20;86.30
11229;DHT22;5671;47.936;8.716;2022-10-19T08:25:12;13.20;86.20
11229;DHT22;5671;47.936;8.716;2022-10-19T08:27:39;13.20;86.30
11229;DHT22;5671;47.936;8.716;2022-10-19T08:30:06;13.20;86.10
11229;DHT22;5671;47.936;8.716;2022-10-19T08:32:35;13.30;86.10
11229;DHT22;5671;47.936;8.716;2022-10-19T08:35:02;13.30;85.80
11229;DHT22;5671;47.936;8.716;2022-10-19T08:37:29;13.30;85.80
11229;DHT22;5671;47.936;8.716;2022-10-19T08:39:56;13.30;85.60
11229;DHT22;5671;47.936;8.716;2022-10-19T08:42:28;13.40;85.70
11229;DHT22;5671;47.936;8.716;2022-10-19T08:45:20;13.40;85.30
11229;DHT22;5671;47.936;8.716;2022-10-19T08:48:16;13.40;85.40
11229;DHT22;5671;47.936;8.716;2022-10-19T08:50:46;13.50;85.20
11229;DHT22;5671;47.936;8.716;2022-10-19T08:53:16;13.60;85.20
11229;DHT22;5671;47.936;8.716;2022-10-19T08:55:54;13.60;84.70
11229;DHT22;5671;47.936;8.716;2022-10-19T08:58:41;13.60;84.60
11229;DHT22;5671;47.936;8.716;2022-10-19T09:01:17;13.70;84.40
11229;DHT22;5671;47.936;8.716;2022-10-19T09:03:55;13.70;84.30
11229;DHT22;5671;47.936;8.716;2022-10-19T09:06:28;13.80;84.30
11229;DHT22;5671;47.936;8.716;2022-10-19T09:08:58;13.90;84.20
11229;DHT22;5671;47.936;8.716;2022-10-19T09:11:31;13.90;84.20
11229;DHT22;5671;47.936;8.716;2022-10-19T09:14:04;14.00;83.50
11229;DHT22;5671;47.936;8.716;2022-10-19T09:16:32;14.00;83.60
11229;DHT22;5671;47.936;8.716;2022-10-19T09:19:02;14.10;83.10
11229;DHT22;5671;47.936;8.716;2022-10-19T09:21:38;14.10;83.50
11229;DHT22;5671;47.936;8.716;2022-10-19T09:24:17;14.30;83.70
11229;DHT22;5671;47.936;8.716;2022-10-19T09:26:50;14.40;82.60
11229;DHT22;5671;47.936;8.716;2022-10-19T09:29:23;14.50;82.80
11229;DHT22;5671;47.936;8.716;2022-10-19T09:31:54;14.60;82.70
11229;DHT22;5671;47.936;8.716;2022-10-19T09:34:25;14.70;82.00
11229;DHT22;5671;47.936;8.716;2022-10-19T09:36:59;14.80;81.30
11229;DHT22;5671;47.936;8.716;2022-10-19T09:40:08;14.90;80.40
11229;DHT22;5671;47.936;8.716;2022-10-19T09:42:48;15.00;80.10
11229;DHT22;5671;47.936;8.716;2022-10-19T09:45:31;15.10;79.50
11229;DHT22;5671;47.936;8.716;2022-10-19T09:51:38;15.50;80.10
11229;DHT22;5671;47.936;8.716;2022-10-19T09:54:30;16.00;78.50
11229;DHT22;5671;47.936;8.716;2022-10-19T09:56:59;16.60;78.60
11229;DHT22;5671;47.936;8.716;2022-10-19T09:59:35;17.10;76.10
11229;DHT22;5671;47.936;8.716;2022-10-19T10:03:03;17.70;74.00
11229;DHT22;5671;47.936;8.716;2022-10-19T10:21:32;21.10;60.80
11229;DHT22;5671;47.936;8.716;2022-10-19T10:24:09;21.30;61.30
11229;DHT22;5671;47.936;8.716;2022-10-19T10:26:46;21.40;60.10
11229;DHT22;5671;47.936;8.716;2022-10-19T10:29:19;21.70;61.00
11229;DHT22;5671;47.936;8.716;2022-10-19T10:31:52;21.70;59.70
11229;DHT22;5671;47.936;8.716;2022-10-19T10:34:39;21.80;59.60
11229;DHT22;5671;47.936;8.716;2022-10-19T10:39:59;21.40;59.30
11229;DHT22;5671;47.936;8.716;2022-10-19T10:42:31;21.30;59.20
11229;DHT22;5671;47.936;8.716;2022-10-19T10:45:08;20.80;59.60
11229;DHT22;5671;47.936;8.716;2022-10-19T10:47:54;20.40;60.20
11229;DHT22;5671;47.936;8.716;2022-10-19T10:50:33;20.10;61.60
11229;DHT22;5671;47.936;8.716;2022-10-19T10:53:05;19.80;62.80
11229;DHT22;5671;47.936;8.716;2022-10-19T10:55:33;19.60;64.20
11229;DHT22;5671;47.936;8.716;2022-10-19T10:58:32;19.40;63.50
11229;DHT22;5671;47.936;8.716;2022-10-19T11:01:06;19.20;63.40
11229;DHT22;5671;47.936;8.716;2022-10-19T11:03:45;18.90;65.50
11229;DHT22;5671;47.936;8.716;2022-10-19T11:06:13;18.80;65.80
11229;DHT22;5671;47.936;8.716;2022-10-19T11:08:48;18.60;65.00
11229;DHT22;5671;47.936;8.716;2022-10-19T11:11:18;18.50;66.40
11229;DHT22;5671;47.936;8.716;2022-10-19T11:13:50;18.40;66.90
11229;DHT22;5671;47.936;8.716;2022-10-19T11:16:22;18.30;66.40
11229;DHT22;5671;47.936;8.716;2022-10-19T11:18:54;18.30;65.90
11229;DHT22;5671;47.936;8.716;2022-10-19T11:21:25;18.40;66.60
11229;DHT22;5671;47.936;8.716;2022-10-19T11:24:07;18.50;67.40
11229;DHT22;5671;47.936;8.716;2022-10-19T11:26:47;18.50;66.70
11229;DHT22;5671;47.936;8.716;2022-10-19T11:29:39;18.50;67.00
11229;DHT22;5671;47.936;8.716;2022-10-19T11:32:14;18.50;67.40
11229;DHT22;5671;47.936;8.716;2022-10-19T11:34:58;18.40;66.90
11229;DHT22;5671;47.936;8.716;2022-10-19T11:37:32;18.30;67.70
11229;DHT22;5671;47.936;8.716;2022-10-19T11:40:11;18.30;67.40
11229;DHT22;5671;47.936;8.716;2022-10-19T11:42:51;18.20;67.40
11229;DHT22;5671;47.936;8.716;2022-10-19T11:45:29;18.20;67.50
11229;DHT22;5671;47.936;8.716;2022-10-19T11:48:12;18.10;66.70
11229;DHT22;5671;47.936;8.716;2022-10-19T11:50:49;18.10;66.30
11229;DHT22;5671;47.936;8.716;2022-10-19T11:53:31;18.10;66.60
11229;DHT22;5671;47.936;8.716;2022-10-19T11:56:26;18.20;66.40
11229;DHT22;5671;47.936;8.716;2022-10-19T11:59:03;18.40;65.50
11229;DHT22;5671;47.936;8.716;2022-10-19T12:01:41;18.50;65.10
11229;DHT22;5671;47.936;8.716;2022-10-19T12:04:52;18.50;66.30
11229;DHT22;5671;47.936;8.716;2022-10-19T12:07:49;18.50;66.50
11229;DHT22;5671;47.936;8.716;2022-10-19T12:10:28;18.70;66.30
11229;DHT22;5671;47.936;8.716;2022-10-19T12:13:07;19.00;64.70
11229;DHT22;5671;47.936;8.716;2022-10-19T12:15:43;19.20;63.40
11229;DHT22;5671;47.936;8.716;2022-10-19T12:18:15;19.60;62.00
11229;DHT22;5671;47.936;8.716;2022-10-19T12:20:48;19.80;61.30
11229;DHT22;5671;47.936;8.716;2022-10-19T12:23:27;20.00;60.30
11229;DHT22;5671;47.936;8.716;2022-10-19T12:25:59;20.20;60.40
11229;DHT22;5671;47.936;8.716;2022-10-19T12:28:54;20.40;60.50
11229;DHT22;5671;47.936;8.716;2022-10-19T12:31:35;20.60;57.80
11229;DHT22;5671;47.936;8.716;2022-10-19T12:34:48;20.80;58.60
11229;DHT22;5671;47.936;8.716;2022-10-19T12:37:24;20.90;57.20
11229;DHT22;5671;47.936;8.716;2022-10-19T12:40:18;21.00;57.60
11229;DHT22;5671;47.936;8.716;2022-10-19T12:43:07;21.20;57.10
11229;DHT22;5671;47.936;8.716;2022-10-19T12:45:51;21.40;55.90
11229;DHT22;5671;47.936;8.716;2022-10-19T12:48:35;21.80;56.30
11229;DHT22;5671;47.936;8.716;2022-10-19T12:51:16;22.10;55.50
11229;DHT22;5671;47.936;8.716;2022-10-19T12:54:24;22.00;54.70
11229;DHT22;5671;47.936;8.716;2022-10-19T12:56:59;22.30;55.40
11229;DHT22;5671;47.936;8.716;2022-10-19T12:59:29;22.40;53.80
11229;DHT22;5671;47.936;8.716;2022-10-19T13:02:04;22.10;55.20
11229;DHT22;5671;47.936;8.716;2022-10-19T13:04:33;22.20;55.70
11229;DHT22;5671;47.936;8.716;2022-10-19T13:07:05;22.20;54.90
11229;DHT22;5671;47.936;8.716;2022-10-19T13:09:46;22.40;54.50
11229;DHT22;5671;47.936;8.716;2022-10-19T13:14:59;22.30;54.20
11229;DHT22;5671;47.936;8.716;2022-10-19T13:17:54;22.10;53.90
11229;DHT22;5671;47.936;8.716;2022-10-19T13:20:49;22.10;53.90
11229;DHT22;5671;47.936;8.716;2022-10-19T13:23:44;22.00;55.10
11229;DHT22;5671;47.936;8.716;2022-10-19T13:27:08;22.00;53.70
11229;DHT22;5671;47.936;8.716;2022-10-19T13:29:39;22.10;54.70
11229;DHT22;5671;47.936;8.716;2022-10-19T13:32:35;22.30;54.40
11229;DHT22;5671;47.936;8.716;2022-10-19T13:35:39;22.30;53.80
11229;DHT22;5671;47.936;8.716;2022-10-19T13:40:38;22.30;54.50
11229;DHT22;5671;47.936;8.716;2022-10-19T13:56:21;21.60;54.10
11229;DHT22;5671;47.936;8.716;2022-10-19T14:06:23;20.60;56.70
11229;DHT22;5671;47.936;8.716;2022-10-19T14:09:27;20.60;57.10
11229;DHT22;5671;47.936;8.716;2022-10-19T14:12:02;20.30;57.00
11229;DHT22;5671;47.936;8.716;2022-10-19T14:14:43;20.00;58.20
11229;DHT22;5671;47.936;8.716;2022-10-19T14:17:21;19.80;59.30
11229;DHT22;5671;47.936;8.716;2022-10-19T14:23:17;19.00;60.20
11229;DHT22;5671;47.936;8.716;2022-10-19T14:27:14;18.70;61.00
11229;DHT22;5671;47.936;8.716;2022-10-19T14:33:06;17.80;63.30
11229;DHT22;5671;47.936;8.716;2022-10-19T14:35:52;17.40;64.80
11229;DHT22;5671;47.936;8.716;2022-10-19T14:38:37;17.20;65.30
11229;DHT22;5671;47.936;8.716;2022-10-19T14:41:28;16.90;66.00
11229;DHT22;5671;47.936;8.716;2022-10-19T14:44:36;16.70;66.90
11229;DHT22;5671;47.936;8.716;2022-10-19T14:47:18;16.50;67.60
11229;DHT22;5671;47.936;8.716;2022-10-19T14:52:47;16.00;69.10
11229;DHT22;5671;47.936;8.716;2022-10-19T14:55:17;15.80;69.50
11229;DHT22;5671;47.936;8.716;2022-10-19T14:57:49;15.70;70.20
11229;DHT22;5671;47.936;8.716;2022-10-19T15:00:21;15.50;70.40
11229;DHT22;5671;47.936;8.716;2022-10-19T15:02:57;15.50;70.90
11229;DHT22;5671;47.936;8.716;2022-10-19T15:05:30;15.40;71.10
11229;DHT22;5671;47.936;8.716;2022-10-19T15:08:07;15.40;70.90
11229;DHT22;5671;47.936;8.716;2022-10-19T15:10:40;15.40;71.80
11229;DHT22;5671;47.936;8.716;2022-10-19T15:13:22;15.40;71.90
11229;DHT22;5671;47.936;8.716;2022-10-19T15:15:51;15.40;71.50
11229;DHT22;5671;47.936;8.716;2022-10-19T15:18:24;15.40;71.10
11229;DHT22;5671;47.936;8.716;2022-10-19T15:21:03;15.30;71.40
11229;DHT22;5671;47.936;8.716;2022-10-19T15:23:36;15.40;71.10
11229;DHT22;5671;47.936;8.716;2022-10-19T15:26:14;15.40;71.90
11229;DHT22;5671;47.936;8.716;2022-10-19T15:28:41;15.40;71.50
11229;DHT22;5671;47.936;8.716;2022-10-19T15:31:16;15.30;71.70
11229;DHT22;5671;47.936;8.716;2022-10-19T15:33:49;15.30;71.70
11229;DHT22;5671;47.936;8.716;2022-10-19T15:36:17;15.20;72.00
11229;DHT22;5671;47.936;8.716;2022-10-19T15:38:49;15.20;72.60
11229;DHT22;5671;47.936;8.716;2022-10-19T15:41:28;15.10;72.30
11229;DHT22;5671;47.936;8.716;2022-10-19T15:43:59;15.00;73.00
11229;DHT22;5671;47.936;8.716;2022-10-19T15:47:11;15.00;72.90
11229;DHT22;5671;47.936;8.716;2022-10-19T15:49:55;15.00;73.10
11229;DHT22;5671;47.936;8.716;2022-10-19T15:52:25;14.90;73.10
11229;DHT22;5671;47.936;8.716;2022-10-19T15:54:54;14.80;73.60
11229;DHT22;5671;47.936;8.716;2022-10-19T15:57:25;14.80;73.20
11229;DHT22;5671;47.936;8.716;2022-10-19T15:59:52;14.80;73.70
11229;DHT22;5671;47.936;8.716;2022-10-19T16:06:03;14.70;73.70
11229;DHT22;5671;47.936;8.716;2022-10-19T16:08:31;14.60;74.40
11229;DHT22;5671;47.936;8.716;2022-10-19T16:11:01;14.50;74.40
11229;DHT22;5671;47.936;8.716;2022-10-19T16:13:32;14.50;74.10
11229;DHT22;5671;47.936;8.716;2022-10-19T16:16:16;14.50;74.50
11229;DHT22;5671;47.936;8.716;2022-10-19T16:18:48;14.40;74.80
11229;DHT22;5671;47.936;8.716;2022-10-19T16:21:17;14.40;75.20
11229;DHT22;5671;47.936;8.716;2022-10-19T16:23:44;14.40;74.80
11229;DHT22;5671;47.936;8.716;2022-10-19T16:26:11;14.30;75.10
11229;DHT22;5671;47.936;8.716;2022-10-19T16:28:39;14.20;75.00
11229;DHT22;5671;47.936;8.716;2022-10-19T16:31:06;14.20;75.50
11229;DHT22;5671;47.936;8.716;2022-10-19T16:33:33;14.10;74.80
11229;DHT22;5671;47.936;8.716;2022-10-19T16:36:03;14.20;75.40
11229;DHT22;5671;47.936;8.716;2022-10-19T16:38:32;14.10;75.00
11229;DHT22;5671;47.936;8.716;2022-10-19T16:41:00;14.10;75.80
11229;DHT22;5671;47.936;8.716;2022-10-19T16:43:27;14.00;75.30
11229;DHT22;5671;47.936;8.716;2022-10-19T16:45:55;14.00;75.80
11229;DHT22;5671;47.936;8.716;2022-10-19T16:48:23;13.90;76.40
11229;DHT22;5671;47.936;8.716;2022-10-19T16:51:14;13.90;76.40
11229;DHT22;5671;47.936;8.716;2022-10-19T16:53:45;13.80;76.20
11229;DHT22;5671;47.936;8.716;2022-10-19T16:56:12;13.80;77.20
11229;DHT22;5671;47.936;8.716;2022-10-19T16:58:39;13.80;77.00
11229;DHT22;5671;47.936;8.716;2022-10-19T17:01:06;13.70;76.90
11229;DHT22;5671;47.936;8.716;2022-10-19T17:03:34;13.70;77.40
11229;DHT22;5671;47.936;8.716;2022-10-19T17:06:01;13.60;77.70
11229;DHT22;5671;47.936;8.716;2022-10-19T17:08:28;13.50;78.10
11229;DHT22;5671;47.936;8.716;2022-10-19T17:11:08;13.50;78.20
11229;DHT22;5671;47.936;8.716;2022-10-19T17:13:35;13.40;78.20
11229;DHT22;5671;47.936;8.716;2022-10-19T17:16:02;13.40;78.50
11229;DHT22;5671;47.936;8.716;2022-10-19T17:18:29;13.40;78.50
11229;DHT22;5671;47.936;8.716;2022-10-19T17:21:03;13.30;78.70
11229;DHT22;5671;47.936;8.716;2022-10-19T17:23:31;13.30;78.60
11229;DHT22;5671;47.936;8.716;2022-10-19T17:26:03;13.20;78.60
11229;DHT22;5671;47.936;8.716;2022-10-19T17:28:31;13.20;78.70